createdAt,value
2018-04-10T00:00:03.886Z,13.01
2018-04-10T00:00:07.990Z,13.01
2018-04-10T00:00:12.190Z,13.04
2018-04-10T00:00:16.384Z,12.99
2018-04-10T00:00:20.587Z,12.99
2018-04-10T00:00:24.889Z,12.95
2018-04-10T00:00:29.084Z,13.03
2018-04-10T00:00:33.394Z,12.98
2018-04-10T00:00:37.390Z,12.99
2018-04-10T00:00:41.707Z,13.04
2018-04-10T00:00:45.588Z,12.98
2018-04-10T00:00:49.787Z,12.98
2018-04-10T00:00:53.881Z,13.01
2018-04-10T00:00:58.092Z,12.98
2018-04-10T00:01:02.079Z,12.98
2018-04-10T00:01:05.969Z,12.99
2018-04-10T00:01:09.963Z,13.01
2018-04-10T00:01:14.063Z,12.99
2018-04-10T00:01:18.258Z,12.99
2018-04-10T00:01:22.355Z,12.99
2018-04-10T00:01:26.661Z,12.99
2018-04-10T00:01:30.552Z,12.98
2018-04-10T00:01:34.745Z,13.01
2018-04-10T00:01:39.046Z,12.99
2018-04-10T00:01:43.349Z,12.94
2018-04-10T00:01:47.557Z,12.96
2018-04-10T00:01:51.760Z,12.99
2018-04-10T00:01:56.063Z,12.96
2018-04-10T00:02:00.046Z,12.98
2018-04-10T00:02:04.517Z,12.98
2018-04-10T00:02:08.411Z,12.98
2018-04-10T00:02:12.610Z,12.96
2018-04-10T00:02:16.636Z,12.95
2018-04-10T00:02:20.730Z,13.03
2018-04-10T00:02:24.925Z,12.95
2018-04-10T00:02:29.126Z,13.01
2018-04-10T00:02:33.219Z,12.98
2018-04-10T00:02:37.523Z,13.06
2018-04-10T00:02:41.406Z,12.99
2018-04-10T00:02:45.494Z,13.04
2018-04-10T00:02:49.477Z,13.04
2018-04-10T00:02:53.568Z,13.01
2018-04-10T00:02:57.876Z,13.03
2018-04-10T00:03:02.184Z,12.98
2018-04-10T00:03:06.173Z,13.03
2018-04-10T00:03:10.307Z,13.01
2018-04-10T00:03:14.408Z,12.96
2018-04-10T00:03:18.495Z,13.03
2018-04-10T00:03:22.477Z,12.99
2018-04-10T00:03:26.681Z,12.96
2018-04-10T00:03:30.775Z,12.98
2018-04-10T00:03:34.764Z,12.96
2018-04-10T00:03:38.960Z,12.99
2018-04-10T00:03:43.261Z,12.99
2018-04-10T00:03:47.375Z,13.01
2018-04-10T00:03:51.679Z,12.98
2018-04-10T00:03:55.774Z,13.06
2018-04-10T00:03:59.974Z,13.03
2018-04-10T00:04:04.070Z,12.98
2018-04-10T00:04:08.162Z,12.98
2018-04-10T00:04:12.252Z,12.98
2018-04-10T00:04:16.453Z,13.03
2018-04-10T00:04:20.544Z,12.99
2018-04-10T00:04:24.753Z,13.01
2018-04-10T00:04:28.743Z,12.99
2018-04-10T00:04:32.729Z,13.03
2018-04-10T00:04:36.927Z,12.99
2018-04-10T00:04:41.234Z,12.99
2018-04-10T00:04:45.427Z,12.96
2018-04-10T00:04:49.522Z,12.98
2018-04-10T00:04:53.829Z,12.98
2018-04-10T00:04:58.025Z,12.99
2018-04-10T00:05:02.279Z,12.96
2018-04-10T00:05:06.273Z,13.01
2018-04-10T00:05:10.366Z,12.99
2018-04-10T00:05:14.456Z,13.04
2018-04-10T00:05:18.661Z,13.01
2018-04-10T00:05:22.856Z,12.99
2018-04-10T00:05:27.061Z,13.01
2018-04-10T00:05:31.379Z,13.04
2018-04-10T00:05:35.690Z,13.01
2018-04-10T00:05:39.886Z,12.99
2018-04-10T00:05:43.874Z,12.99
2018-04-10T00:05:47.972Z,13.01
2018-04-10T00:05:52.072Z,12.98
2018-04-10T00:05:56.268Z,12.98
2018-04-10T00:06:00.465Z,13.01
2018-04-10T00:06:04.481Z,12.98
2018-04-10T00:06:08.472Z,13.03
2018-04-10T00:06:12.673Z,12.98
2018-04-10T00:06:16.764Z,13.01
2018-04-10T00:06:20.967Z,12.98
2018-04-10T00:06:25.174Z,13.1
2018-04-10T00:06:29.409Z,13.03
2018-04-10T00:06:33.714Z,13.01
2018-04-10T00:06:37.817Z,12.92
2018-04-10T00:06:42.028Z,12.99
2018-04-10T00:06:46.127Z,12.99
2018-04-10T00:06:50.323Z,13.01
2018-04-10T00:06:54.418Z,13.04
2018-04-10T00:06:58.647Z,12.98
2018-04-10T00:07:03.191Z,12.92
2018-04-10T00:07:07.556Z,13.01
2018-04-10T00:07:11.734Z,12.99
2018-04-10T00:07:15.934Z,12.98
2018-04-10T00:07:20.031Z,12.98
2018-04-10T00:07:24.017Z,12.95
2018-04-10T00:07:28.214Z,12.96
2018-04-10T00:07:32.314Z,12.96
2018-04-10T00:07:36.613Z,12.99
2018-04-10T00:07:40.809Z,12.95
2018-04-10T00:07:45.016Z,12.98
2018-04-10T00:07:49.211Z,12.99
2018-04-10T00:07:53.412Z,12.99
2018-04-10T00:07:57.620Z,12.94
2018-04-10T00:08:01.824Z,13.01
2018-04-10T00:08:06.016Z,12.98
2018-04-10T00:08:10.004Z,13.01
2018-04-10T00:08:14.205Z,12.96
2018-04-10T00:08:18.196Z,13.01
2018-04-10T00:08:22.179Z,13.01
2018-04-10T00:08:26.269Z,13.04
2018-04-10T00:08:30.366Z,13.04
2018-04-10T00:08:34.457Z,12.99
2018-04-10T00:08:38.659Z,12.99
2018-04-10T00:08:42.854Z,12.98
2018-04-10T00:08:47.064Z,12.98
2018-04-10T00:08:51.060Z,12.98
2018-04-10T00:08:55.150Z,13.03
2018-04-10T00:08:59.353Z,13.06
2018-04-10T00:09:03.487Z,12.95
2018-04-10T00:09:07.802Z,12.99
2018-04-10T00:09:12.001Z,13.03
2018-04-10T00:09:16.302Z,13.01
2018-04-10T00:09:20.399Z,12.98
2018-04-10T00:09:24.493Z,13.01
2018-04-10T00:09:28.477Z,13.01
2018-04-10T00:09:32.567Z,12.99
2018-04-10T00:09:36.771Z,12.98
2018-04-10T00:09:40.872Z,12.99
2018-04-10T00:09:44.857Z,13.04
2018-04-10T00:09:48.887Z,12.96
2018-04-10T00:09:53.087Z,12.98
2018-04-10T00:09:57.290Z,12.99
2018-04-10T00:10:01.840Z,13.03
2018-04-10T00:10:05.722Z,12.99
2018-04-10T00:10:09.705Z,12.99
2018-04-10T00:10:14.005Z,12.98
2018-04-10T00:10:18.096Z,13.06
2018-04-10T00:10:22.398Z,12.98
2018-04-10T00:10:26.589Z,13.03
2018-04-10T00:10:30.683Z,13.06
2018-04-10T00:10:34.669Z,13.06
2018-04-10T00:10:38.758Z,13.07
2018-04-10T00:10:42.850Z,13.03
2018-04-10T00:10:46.835Z,13.03
2018-04-10T00:10:50.932Z,13.03
2018-04-10T00:10:55.027Z,12.96
2018-04-10T00:10:59.223Z,12.99
2018-04-10T00:11:03.350Z,12.99
2018-04-10T00:11:07.441Z,13.07
2018-04-10T00:11:11.541Z,12.98
2018-04-10T00:11:15.634Z,13.04
2018-04-10T00:11:19.828Z,13.07
2018-04-10T00:11:24.028Z,13.06
2018-04-10T00:11:28.235Z,12.99
2018-04-10T00:11:32.328Z,13.07
2018-04-10T00:11:36.532Z,12.98
2018-04-10T00:11:40.624Z,13.07
2018-04-10T00:11:44.928Z,13.09
2018-04-10T00:11:48.706Z,13.06
2018-04-10T00:11:52.909Z,13.07
2018-04-10T00:11:57.220Z,13.03
2018-04-10T00:12:01.419Z,12.99
2018-04-10T00:12:05.514Z,13.03
2018-04-10T00:12:09.817Z,13.01
2018-04-10T00:12:14.041Z,13.04
2018-04-10T00:12:18.342Z,13.09
2018-04-10T00:12:22.336Z,13.04
2018-04-10T00:12:26.429Z,13.12
2018-04-10T00:12:30.519Z,12.98
2018-04-10T00:12:34.609Z,13.04
2018-04-10T00:12:38.707Z,13.09
2018-04-10T00:12:43.016Z,13.04
2018-04-10T00:12:47.011Z,13.06
2018-04-10T00:12:51.001Z,13.03
2018-04-10T00:12:55.092Z,13.1
2018-04-10T00:12:59.188Z,13.09
2018-04-10T00:13:03.539Z,12.99
2018-04-10T00:13:07.736Z,13.01
2018-04-10T00:13:11.833Z,13.1
2018-04-10T00:13:15.926Z,13.04
2018-04-10T00:13:20.013Z,13.1
2018-04-10T00:13:24.215Z,13.09
2018-04-10T00:13:28.203Z,13.06
2018-04-10T00:13:32.298Z,13.03
2018-04-10T00:13:36.387Z,13.12
2018-04-10T00:13:40.486Z,12.99
2018-04-10T00:13:44.583Z,13.03
2018-04-10T00:13:48.780Z,13.04
2018-04-10T00:13:53.080Z,13.04
2018-04-10T00:13:57.284Z,13.06
2018-04-10T00:14:01.828Z,12.96
2018-04-10T00:14:05.917Z,13.04
2018-04-10T00:14:10.007Z,13.07
2018-04-10T00:14:14.205Z,13.1
2018-04-10T00:14:18.414Z,12.98
2018-04-10T00:14:22.291Z,12.99
2018-04-10T00:14:26.493Z,13.06
2018-04-10T00:14:30.690Z,13.04
2018-04-10T00:14:34.989Z,12.95
2018-04-10T00:14:39.079Z,13.06
2018-04-10T00:14:43.386Z,12.99
2018-04-10T00:14:47.579Z,13.12
2018-04-10T00:14:51.671Z,13.03
2018-04-10T00:14:55.869Z,13.04
2018-04-10T00:14:59.858Z,12.99
2018-04-10T00:15:03.954Z,13.09
2018-04-10T00:15:08.157Z,12.96
2018-04-10T00:15:12.255Z,13.09
2018-04-10T00:15:16.136Z,13.01
2018-04-10T00:15:20.229Z,13.09
2018-04-10T00:15:24.320Z,13.03
2018-04-10T00:15:28.526Z,13.07
2018-04-10T00:15:32.511Z,13.06
2018-04-10T00:15:36.712Z,13.03
2018-04-10T00:15:40.697Z,13.01
2018-04-10T00:15:44.680Z,13.13
2018-04-10T00:15:48.669Z,13.03
2018-04-10T00:15:52.972Z,12.96
2018-04-10T00:15:57.183Z,12.99
2018-04-10T00:16:01.396Z,13.09
2018-04-10T00:16:05.487Z,13.07
2018-04-10T00:16:09.788Z,13.06
2018-04-10T00:16:13.986Z,12.95
2018-04-10T00:16:18.082Z,13.03
2018-04-10T00:16:22.375Z,13.03
2018-04-10T00:16:26.505Z,13.03
2018-04-10T00:16:30.599Z,12.99
2018-04-10T00:16:34.905Z,12.99
2018-04-10T00:16:38.676Z,12.99
2018-04-10T00:16:42.778Z,12.99
2018-04-10T00:16:46.870Z,13.03
2018-04-10T00:16:51.060Z,13.04
2018-04-10T00:16:55.159Z,13.01
2018-04-10T00:16:59.251Z,12.99
2018-04-10T00:17:03.181Z,12.94
2018-04-10T00:17:07.270Z,12.99
2018-04-10T00:17:11.477Z,13.03
2018-04-10T00:17:15.778Z,12.98
2018-04-10T00:17:19.981Z,12.98
2018-04-10T00:17:24.289Z,13.04
2018-04-10T00:17:28.173Z,13.06
2018-04-10T00:17:32.264Z,12.96
2018-04-10T00:17:36.461Z,12.99
2018-04-10T00:17:40.766Z,12.98
2018-04-10T00:17:44.854Z,12.95
2018-04-10T00:17:49.085Z,13.01
2018-04-10T00:17:53.386Z,12.95
2018-04-10T00:17:57.485Z,13.1
2018-04-10T00:18:01.836Z,12.98
2018-04-10T00:18:06.039Z,12.99
2018-04-10T00:18:10.130Z,13.1
2018-04-10T00:18:14.329Z,13.01
2018-04-10T00:18:18.636Z,13.01
2018-04-10T00:18:22.938Z,13.03
2018-04-10T00:18:26.932Z,12.99
2018-04-10T00:18:31.135Z,12.96
2018-04-10T00:18:35.228Z,12.96
2018-04-10T00:18:39.432Z,12.99
2018-04-10T00:18:43.632Z,12.99
2018-04-10T00:18:47.843Z,13.03
2018-04-10T00:18:52.044Z,12.99
2018-04-10T00:18:56.239Z,12.99
2018-04-10T00:19:00.434Z,12.98
2018-04-10T00:19:04.313Z,12.99
2018-04-10T00:19:08.615Z,12.99
2018-04-10T00:19:12.816Z,12.99
2018-04-10T00:19:17.015Z,12.94
2018-04-10T00:19:21.320Z,12.99
2018-04-10T00:19:25.412Z,13.01
2018-04-10T00:19:29.398Z,12.98
2018-04-10T00:19:33.491Z,13.03
2018-04-10T00:19:37.689Z,12.94
2018-04-10T00:19:42.000Z,13.03
2018-04-10T00:19:46.200Z,13.01
2018-04-10T00:19:50.500Z,12.98
2018-04-10T00:19:54.702Z,12.98
2018-04-10T00:19:58.898Z,12.99
2018-04-10T00:20:03.035Z,12.99
2018-04-10T00:20:07.232Z,12.99
2018-04-10T00:20:11.539Z,12.96
2018-04-10T00:20:15.637Z,12.92
2018-04-10T00:20:19.832Z,12.98
2018-04-10T00:20:23.924Z,13.06
2018-04-10T00:20:28.023Z,13.06
2018-04-10T00:20:32.222Z,13.01
2018-04-10T00:20:36.523Z,12.98
2018-04-10T00:20:40.628Z,13.01
2018-04-10T00:20:44.930Z,13.03
2018-04-10T00:20:49.029Z,12.95
2018-04-10T00:20:53.223Z,13.01
2018-04-10T00:20:57.419Z,13.03
2018-04-10T00:21:01.407Z,13.01
2018-04-10T00:21:05.123Z,12.99
2018-04-10T00:21:09.114Z,13.04
2018-04-10T00:21:13.417Z,12.99
2018-04-10T00:21:17.625Z,12.92
2018-04-10T00:21:21.718Z,13.01
2018-04-10T00:21:25.806Z,12.94
2018-04-10T00:21:30.007Z,13.01
2018-04-10T00:21:34.238Z,12.98
2018-04-10T00:21:38.436Z,12.99
2018-04-10T00:21:42.739Z,12.96
2018-04-10T00:21:46.828Z,13.01
2018-04-10T00:21:51.025Z,12.96
2018-04-10T00:21:55.222Z,12.92
2018-04-10T00:21:59.526Z,13.03
2018-04-10T00:22:03.828Z,12.99
2018-04-10T00:22:07.823Z,12.96
2018-04-10T00:22:11.917Z,12.99
2018-04-10T00:22:16.224Z,13.03
2018-04-10T00:22:20.422Z,13.01
2018-04-10T00:22:24.411Z,13.01
2018-04-10T00:22:28.505Z,12.99
2018-04-10T00:22:32.590Z,13.06
2018-04-10T00:22:36.898Z,13.01
2018-04-10T00:22:41.105Z,13.01
2018-04-10T00:22:45.305Z,12.99
2018-04-10T00:22:49.509Z,12.98
2018-04-10T00:22:53.597Z,13.01
2018-04-10T00:22:57.910Z,12.96
2018-04-10T00:23:02.345Z,12.96
2018-04-10T00:23:06.548Z,13.06
2018-04-10T00:23:10.639Z,12.95
2018-04-10T00:23:14.738Z,13.03
2018-04-10T00:23:18.939Z,13.01
2018-04-10T00:23:23.129Z,12.98
2018-04-10T00:23:27.221Z,12.98
2018-04-10T00:23:31.525Z,12.99
2018-04-10T00:23:35.723Z,13.03
2018-04-10T00:23:39.918Z,13.03
2018-04-10T00:23:43.901Z,13.04
2018-04-10T00:23:48.206Z,13.06
2018-04-10T00:23:52.202Z,12.95
2018-04-10T00:23:56.299Z,12.99
2018-04-10T00:24:00.396Z,12.99
2018-04-10T00:24:04.699Z,13.03
2018-04-10T00:24:08.687Z,12.99
2018-04-10T00:24:12.787Z,13.07
2018-04-10T00:24:17.095Z,13.06
2018-04-10T00:24:21.083Z,13.04
2018-04-10T00:24:25.070Z,12.99
2018-04-10T00:24:29.391Z,13.09
2018-04-10T00:24:33.275Z,12.96
2018-04-10T00:24:37.478Z,12.96
2018-04-10T00:24:41.779Z,13.04
2018-04-10T00:24:45.879Z,12.96
2018-04-10T00:24:50.010Z,13.03
2018-04-10T00:24:54.315Z,13.04
2018-04-10T00:24:58.620Z,13.04
2018-04-10T00:25:02.611Z,13.1
2018-04-10T00:25:06.916Z,12.96
2018-04-10T00:25:11.112Z,13.04
2018-04-10T00:25:15.314Z,13.04
2018-04-10T00:25:19.509Z,12.96
2018-04-10T00:25:23.706Z,13.01
2018-04-10T00:25:27.905Z,13.07
2018-04-10T00:25:32.030Z,12.96
2018-04-10T00:25:36.226Z,12.99
2018-04-10T00:25:40.419Z,13.04
2018-04-10T00:25:44.518Z,13.06
2018-04-10T00:25:48.717Z,12.99
2018-04-10T00:25:52.809Z,13.07
2018-04-10T00:25:57.009Z,13.09
2018-04-10T00:26:01.116Z,12.99
2018-04-10T00:26:05.252Z,13.1
2018-04-10T00:26:09.237Z,13.1
2018-04-10T00:26:13.439Z,12.96
2018-04-10T00:26:17.534Z,13.07
2018-04-10T00:26:21.630Z,13.04
2018-04-10T00:26:25.721Z,13.03
2018-04-10T00:26:29.948Z,13.06
2018-04-10T00:26:34.044Z,12.99
2018-04-10T00:26:38.133Z,12.99
2018-04-10T00:26:42.223Z,13.07
2018-04-10T00:26:46.313Z,13.04
2018-04-10T00:26:50.523Z,13.1
2018-04-10T00:26:54.724Z,13.07
2018-04-10T00:26:58.924Z,13.06
2018-04-10T00:27:03.019Z,13.09
2018-04-10T00:27:07.116Z,13.1
2018-04-10T00:27:10.995Z,13.1
2018-04-10T00:27:15.190Z,13.06
2018-04-10T00:27:19.385Z,13.13
2018-04-10T00:27:23.685Z,13.03
2018-04-10T00:27:27.878Z,12.99
2018-04-10T00:27:31.969Z,13.1
2018-04-10T00:27:36.058Z,13.06
2018-04-10T00:27:40.147Z,13.12
2018-04-10T00:27:44.342Z,13.04
2018-04-10T00:27:48.440Z,13.06
2018-04-10T00:27:52.746Z,13.06
2018-04-10T00:27:57.053Z,13.07
2018-04-10T00:28:01.248Z,13.04
2018-04-10T00:28:05.450Z,13.06
2018-04-10T00:28:09.544Z,13.1
2018-04-10T00:28:13.844Z,13.06
2018-04-10T00:28:17.936Z,13.01
2018-04-10T00:28:22.159Z,13.06
2018-04-10T00:28:26.368Z,13.06
2018-04-10T00:28:30.578Z,13.04
2018-04-10T00:28:34.564Z,12.99
2018-04-10T00:28:38.764Z,13.06
2018-04-10T00:28:42.969Z,12.94
2018-04-10T00:28:47.069Z,13.04
2018-04-10T00:28:51.063Z,13.13
2018-04-10T00:28:55.163Z,13.16
2018-04-10T00:28:59.479Z,13.03
2018-04-10T00:29:03.358Z,13.1
2018-04-10T00:29:07.343Z,13.13
2018-04-10T00:29:11.436Z,13.06
2018-04-10T00:29:15.533Z,13.13
2018-04-10T00:29:19.420Z,13.1
2018-04-10T00:29:23.509Z,13.07
2018-04-10T00:29:27.611Z,13.12
2018-04-10T00:29:31.807Z,13.06
2018-04-10T00:29:36.003Z,13.1
2018-04-10T00:29:40.105Z,13.04
2018-04-10T00:29:44.304Z,13.1
2018-04-10T00:29:48.512Z,13.13
2018-04-10T00:29:52.816Z,13.1
2018-04-10T00:29:57.014Z,13.06
2018-04-10T00:30:01.249Z,13.06
2018-04-10T00:30:05.656Z,13.12
2018-04-10T00:30:09.756Z,13.1
2018-04-10T00:30:14.074Z,13.06
2018-04-10T00:30:18.269Z,13.06
2018-04-10T00:30:22.260Z,13.12
2018-04-10T00:30:26.467Z,13.1
2018-04-10T00:30:30.774Z,13.12
2018-04-10T00:30:34.760Z,13.1
2018-04-10T00:30:39.095Z,13.12
2018-04-10T00:30:43.187Z,13.04
2018-04-10T00:30:47.384Z,13.13
2018-04-10T00:30:51.591Z,13.07
2018-04-10T00:30:55.791Z,13.01
2018-04-10T00:31:00.004Z,13.09
2018-04-10T00:31:04.360Z,13.04
2018-04-10T00:31:08.566Z,13.1
2018-04-10T00:31:12.760Z,13.1
2018-04-10T00:31:16.966Z,13.09
2018-04-10T00:31:21.067Z,13.04
2018-04-10T00:31:25.271Z,13.09
2018-04-10T00:31:29.466Z,13.13
2018-04-10T00:31:33.771Z,13.09
2018-04-10T00:31:37.864Z,13.1
2018-04-10T00:31:41.854Z,13.09
2018-04-10T00:31:46.054Z,13.1
2018-04-10T00:31:50.037Z,13.13
2018-04-10T00:31:54.129Z,13.07
2018-04-10T00:31:58.331Z,13.16
2018-04-10T00:32:02.672Z,13.12
2018-04-10T00:32:06.764Z,13.12
2018-04-10T00:32:10.755Z,13.1
2018-04-10T00:32:14.853Z,13.1
2018-04-10T00:32:19.160Z,13.12
2018-04-10T00:32:23.362Z,13.13
2018-04-10T00:32:27.250Z,13.13
2018-04-10T00:32:31.233Z,13.07
2018-04-10T00:32:35.579Z,13.1
2018-04-10T00:32:39.668Z,13.13
2018-04-10T00:32:43.863Z,13.1
2018-04-10T00:32:47.848Z,13.13
2018-04-10T00:32:52.150Z,13.1
2018-04-10T00:32:56.349Z,13.12
2018-04-10T00:33:00.548Z,13.13
2018-04-10T00:33:04.940Z,13.16
2018-04-10T00:33:09.138Z,13.09
2018-04-10T00:33:13.245Z,13.13
2018-04-10T00:33:17.127Z,13.1
2018-04-10T00:33:21.221Z,13.16
2018-04-10T00:33:25.316Z,13.1
2018-04-10T00:33:29.512Z,13.13
2018-04-10T00:33:33.600Z,13.12
2018-04-10T00:33:37.584Z,13.09
2018-04-10T00:33:41.780Z,13.09
2018-04-10T00:33:45.972Z,13.14
2018-04-10T00:33:50.167Z,13.07
2018-04-10T00:33:54.265Z,13.13
2018-04-10T00:33:58.359Z,13.12
2018-04-10T00:34:02.551Z,13.14
2018-04-10T00:34:06.753Z,13.13
2018-04-10T00:34:11.055Z,13.04
2018-04-10T00:34:15.367Z,13.21
2018-04-10T00:34:19.458Z,13.13
2018-04-10T00:34:23.671Z,13.1
2018-04-10T00:34:27.869Z,13.16
2018-04-10T00:34:32.177Z,13.1
2018-04-10T00:34:36.478Z,13.1
2018-04-10T00:34:40.570Z,13.06
2018-04-10T00:34:44.661Z,13.1
2018-04-10T00:34:48.962Z,13.13
2018-04-10T00:34:53.260Z,13.13
2018-04-10T00:34:57.458Z,13.13
2018-04-10T00:35:01.812Z,13.07
2018-04-10T00:35:05.805Z,13.12
2018-04-10T00:35:10.003Z,13.07
2018-04-10T00:35:14.201Z,13.07
2018-04-10T00:35:18.515Z,13.13
2018-04-10T00:35:22.821Z,13.12
2018-04-10T00:35:27.032Z,13.09
2018-04-10T00:35:31.233Z,13.1
2018-04-10T00:35:35.327Z,13.13
2018-04-10T00:35:39.634Z,13.07
2018-04-10T00:35:43.727Z,13.12
2018-04-10T00:35:47.929Z,13.1
2018-04-10T00:35:52.235Z,13.14
2018-04-10T00:35:56.432Z,13.1
2018-04-10T00:36:00.745Z,13.14
2018-04-10T00:36:05.195Z,13.14
2018-04-10T00:36:09.076Z,13.14
2018-04-10T00:36:13.380Z,13.12
2018-04-10T00:36:17.693Z,13.07
2018-04-10T00:36:22.001Z,13.19
2018-04-10T00:36:26.094Z,13.1
2018-04-10T00:36:30.295Z,13.13
2018-04-10T00:36:34.492Z,13.04
2018-04-10T00:36:38.689Z,13.12
2018-04-10T00:36:42.786Z,13.13
2018-04-10T00:36:46.874Z,13.1
2018-04-10T00:36:50.964Z,13.13
2018-04-10T00:36:55.060Z,13.12
2018-04-10T00:36:59.158Z,13.14
2018-04-10T00:37:03.458Z,13.13
2018-04-10T00:37:07.655Z,13.12
2018-04-10T00:37:11.855Z,13.03
2018-04-10T00:37:16.049Z,13.12
2018-04-10T00:37:20.074Z,13.03
2018-04-10T00:37:24.381Z,13.09
2018-04-10T00:37:28.369Z,13.09
2018-04-10T00:37:32.675Z,13.14
2018-04-10T00:37:36.872Z,13.14
2018-04-10T00:37:40.961Z,13.09
2018-04-10T00:37:45.265Z,13.09
2018-04-10T00:37:49.568Z,13.1
2018-04-10T00:37:53.767Z,13.12
2018-04-10T00:37:57.964Z,13.09
2018-04-10T00:38:02.423Z,13.12
2018-04-10T00:38:06.638Z,13.12
2018-04-10T00:38:10.842Z,13.04
2018-04-10T00:38:14.931Z,13.1
2018-04-10T00:38:19.131Z,13.1
2018-04-10T00:38:23.227Z,13.06
2018-04-10T00:38:27.422Z,13.06
2018-04-10T00:38:31.521Z,13.1
2018-04-10T00:38:35.509Z,13.12
2018-04-10T00:38:39.599Z,13.12
2018-04-10T00:38:43.906Z,13.12
2018-04-10T00:38:47.995Z,13.13
2018-04-10T00:38:52.193Z,13.04
2018-04-10T00:38:56.390Z,13.09
2018-04-10T00:39:00.697Z,13.12
2018-04-10T00:39:04.783Z,13.04
2018-04-10T00:39:08.882Z,13.16
2018-04-10T00:39:13.184Z,13.04
2018-04-10T00:39:17.282Z,13.1
2018-04-10T00:39:21.277Z,13.13
2018-04-10T00:39:25.376Z,13.04
2018-04-10T00:39:29.364Z,13.07
2018-04-10T00:39:33.670Z,13.03
2018-04-10T00:39:37.871Z,13.07
2018-04-10T00:39:41.969Z,13.03
2018-04-10T00:39:46.276Z,13.1
2018-04-10T00:39:50.577Z,13.06
2018-04-10T00:39:54.564Z,13.07
2018-04-10T00:39:58.770Z,13.01
2018-04-10T00:40:03.083Z,12.99
2018-04-10T00:40:07.284Z,13.04
2018-04-10T00:40:11.374Z,12.96
2018-04-10T00:40:15.567Z,13.03
2018-04-10T00:40:19.872Z,13.04
2018-04-10T00:40:24.211Z,12.96
2018-04-10T00:40:28.306Z,13.03
2018-04-10T00:40:32.612Z,12.95
2018-04-10T00:40:36.916Z,12.99
2018-04-10T00:40:41.116Z,13.03
2018-04-10T00:40:45.327Z,12.99
2018-04-10T00:40:49.415Z,13.03
2018-04-10T00:40:53.610Z,12.95
2018-04-10T00:40:57.487Z,13.03
2018-04-10T00:41:01.777Z,13.03
2018-04-10T00:41:05.761Z,13.04
2018-04-10T00:41:09.753Z,12.95
2018-04-10T00:41:13.851Z,12.99
2018-04-10T00:41:18.049Z,12.99
2018-04-10T00:41:22.042Z,12.94
2018-04-10T00:41:26.132Z,12.99
2018-04-10T00:41:30.334Z,12.99
2018-04-10T00:41:34.531Z,13.01
2018-04-10T00:41:38.631Z,13.03
2018-04-10T00:41:42.722Z,13.01
2018-04-10T00:41:47.027Z,12.98
2018-04-10T00:41:51.365Z,12.99
2018-04-10T00:41:55.453Z,12.98
2018-04-10T00:41:59.548Z,12.99
2018-04-10T00:42:03.865Z,13.01
2018-04-10T00:42:07.958Z,13.03
2018-04-10T00:42:11.837Z,13.04
2018-04-10T00:42:15.824Z,12.99
2018-04-10T00:42:20.027Z,12.99
2018-04-10T00:42:24.225Z,12.99
2018-04-10T00:42:28.213Z,13.01
2018-04-10T00:42:32.310Z,12.98
2018-04-10T00:42:36.614Z,13.09
2018-04-10T00:42:40.599Z,12.98
2018-04-10T00:42:44.584Z,12.98
2018-04-10T00:42:48.785Z,12.98
2018-04-10T00:42:52.881Z,13.01
2018-04-10T00:42:57.196Z,13.01
2018-04-10T00:43:01.392Z,12.99
2018-04-10T00:43:05.500Z,12.99
2018-04-10T00:43:09.693Z,12.99
2018-04-10T00:43:13.575Z,13.03
2018-04-10T00:43:17.568Z,12.99
2018-04-10T00:43:21.451Z,12.98
2018-04-10T00:43:25.684Z,13.01
2018-04-10T00:43:29.885Z,12.99
2018-04-10T00:43:33.980Z,12.99
2018-04-10T00:43:38.186Z,13.01
2018-04-10T00:43:42.490Z,12.98
2018-04-10T00:43:46.683Z,12.98
2018-04-10T00:43:50.874Z,13.01
2018-04-10T00:43:55.075Z,12.92
2018-04-10T00:43:59.385Z,12.95
2018-04-10T00:44:03.491Z,12.98
2018-04-10T00:44:07.794Z,12.99
2018-04-10T00:44:11.988Z,12.96
2018-04-10T00:44:16.081Z,12.99
2018-04-10T00:44:20.281Z,13.01
2018-04-10T00:44:24.477Z,13.04
2018-04-10T00:44:28.683Z,12.96
2018-04-10T00:44:32.990Z,12.96
2018-04-10T00:44:37.081Z,12.96
2018-04-10T00:44:41.278Z,12.99
2018-04-10T00:44:45.479Z,12.95
2018-04-10T00:44:49.576Z,12.99
2018-04-10T00:44:53.667Z,12.98
2018-04-10T00:44:57.757Z,12.96
2018-04-10T00:45:02.169Z,12.94
2018-04-10T00:45:06.375Z,12.98
2018-04-10T00:45:10.577Z,12.94
2018-04-10T00:45:14.773Z,12.94
2018-04-10T00:45:18.876Z,12.92
2018-04-10T00:45:22.859Z,12.92
2018-04-10T00:45:26.739Z,12.98
2018-04-10T00:45:30.934Z,12.95
2018-04-10T00:45:35.131Z,12.94
2018-04-10T00:45:39.331Z,12.96
2018-04-10T00:45:43.636Z,12.94
2018-04-10T00:45:47.725Z,12.95
2018-04-10T00:45:51.816Z,12.96
2018-04-10T00:45:55.801Z,12.96
2018-04-10T00:45:59.998Z,12.91
2018-04-10T00:46:04.203Z,12.94
2018-04-10T00:46:08.193Z,12.92
2018-04-10T00:46:12.186Z,12.94
2018-04-10T00:46:16.276Z,12.96
2018-04-10T00:46:20.594Z,12.94
2018-04-10T00:46:24.796Z,12.91
2018-04-10T00:46:28.914Z,12.94
2018-04-10T00:46:33.013Z,12.94
2018-04-10T00:46:37.212Z,12.92
2018-04-10T00:46:41.314Z,12.91
2018-04-10T00:46:45.405Z,12.91
2018-04-10T00:46:49.496Z,12.94
2018-04-10T00:46:53.482Z,12.94
2018-04-10T00:46:57.681Z,12.94
2018-04-10T00:47:01.973Z,12.92
2018-04-10T00:47:06.063Z,12.91
2018-04-10T00:47:10.372Z,12.94
2018-04-10T00:47:14.571Z,12.88
2018-04-10T00:47:18.665Z,12.89
2018-04-10T00:47:22.872Z,12.91
2018-04-10T00:47:26.961Z,12.96
2018-04-10T00:47:31.048Z,12.87
2018-04-10T00:47:35.138Z,12.89
2018-04-10T00:47:39.337Z,12.91
2018-04-10T00:47:43.321Z,12.94
2018-04-10T00:47:47.521Z,12.87
2018-04-10T00:47:51.724Z,12.85
2018-04-10T00:47:55.708Z,12.87
2018-04-10T00:47:59.794Z,12.76
2018-04-10T00:48:04.104Z,12.92
2018-04-10T00:48:08.093Z,12.87
2018-04-10T00:48:12.292Z,12.87
2018-04-10T00:48:16.493Z,12.88
2018-04-10T00:48:20.794Z,12.87
2018-04-10T00:48:24.892Z,12.87
2018-04-10T00:48:29.200Z,12.81
2018-04-10T00:48:33.447Z,12.92
2018-04-10T00:48:37.764Z,12.87
2018-04-10T00:48:41.862Z,12.8
2018-04-10T00:48:46.165Z,12.87
2018-04-10T00:48:50.256Z,12.76
2018-04-10T00:48:54.360Z,12.85
2018-04-10T00:48:58.664Z,12.87
2018-04-10T00:49:02.806Z,12.85
2018-04-10T00:49:07.002Z,12.81
2018-04-10T00:49:10.989Z,12.79
2018-04-10T00:49:15.292Z,12.84
2018-04-10T00:49:19.493Z,12.79
2018-04-10T00:49:23.592Z,12.8
2018-04-10T00:49:27.696Z,12.81
2018-04-10T00:49:31.894Z,12.84
2018-04-10T00:49:36.087Z,12.73
2018-04-10T00:49:40.294Z,12.74
2018-04-10T00:49:44.617Z,12.76
2018-04-10T00:49:48.713Z,12.74
2018-04-10T00:49:53.055Z,12.77
2018-04-10T00:49:57.359Z,12.79
2018-04-10T00:50:01.457Z,12.77
2018-04-10T00:50:05.444Z,12.76
2018-04-10T00:50:09.436Z,12.73
2018-04-10T00:50:13.630Z,12.77
2018-04-10T00:50:17.840Z,12.71
2018-04-10T00:50:21.825Z,12.71
2018-04-10T00:50:25.958Z,12.74
2018-04-10T00:50:30.154Z,12.71
2018-04-10T00:50:34.244Z,12.69
2018-04-10T00:50:38.447Z,12.7
2018-04-10T00:50:42.542Z,12.66
2018-04-10T00:50:46.739Z,12.71
2018-04-10T00:50:50.942Z,12.69
2018-04-10T00:50:55.149Z,12.7
2018-04-10T00:50:59.248Z,12.76
2018-04-10T00:51:03.342Z,12.74
2018-04-10T00:51:07.540Z,12.71
2018-04-10T00:51:11.631Z,12.77
2018-04-10T00:51:15.936Z,12.7
2018-04-10T00:51:20.133Z,12.71
2018-04-10T00:51:24.226Z,12.67
2018-04-10T00:51:28.208Z,12.77
2018-04-10T00:51:32.403Z,12.62
2018-04-10T00:51:36.604Z,12.79
2018-04-10T00:51:40.694Z,12.71
2018-04-10T00:51:44.587Z,12.7
2018-04-10T00:51:48.675Z,12.67
2018-04-10T00:51:52.871Z,12.71
2018-04-10T00:51:57.171Z,12.67
2018-04-10T00:52:01.369Z,12.59
2018-04-10T00:52:05.247Z,12.71
2018-04-10T00:52:09.237Z,12.66
2018-04-10T00:52:13.328Z,12.66
2018-04-10T00:52:17.424Z,12.62
2018-04-10T00:52:21.521Z,12.61
2018-04-10T00:52:25.605Z,12.58
2018-04-10T00:52:29.801Z,12.59
2018-04-10T00:52:33.785Z,12.7
2018-04-10T00:52:38.088Z,12.63
2018-04-10T00:52:42.185Z,12.71
2018-04-10T00:52:46.389Z,12.62
2018-04-10T00:52:50.692Z,12.71
2018-04-10T00:52:54.998Z,12.61
2018-04-10T00:52:59.195Z,12.7
2018-04-10T00:53:03.811Z,12.66
2018-04-10T00:53:07.907Z,12.7
2018-04-10T00:53:11.997Z,12.63
2018-04-10T00:53:15.981Z,12.7
2018-04-10T00:53:20.066Z,12.73
2018-04-10T00:53:24.263Z,12.7
2018-04-10T00:53:28.457Z,12.62
2018-04-10T00:53:32.554Z,12.7
2018-04-10T00:53:36.547Z,12.7
2018-04-10T00:53:40.740Z,12.7